Time,TemperatureF,DewpointF,PressureIn,WindDirection,WindDirectionDegrees,WindSpeedMPH,WindSpeedGustMPH,Humidity,HourlyPrecipIn,Conditions,Clouds,dailyrainin,SoftwareType,DateUTC
2013-02-04 00:13:00,42.9,27.0,29.81,SSE,152,0.0,8.0,54,0.00,,,0.00,weatherlink.com 1.10,2013-02-04 06:13:00,
2013-02-04 00:28:00,43.1,27.0,29.80,SE,124,1.0,4.0,54,0.00,,,0.00,weatherlink.com 1.10,2013-02-04 06:28:00,
2013-02-04 00:43:00,43.6,27.0,29.80,NE,44,0.0,6.0,53,0.00,,,0.00,weatherlink.com 1.10,2013-02-04 06:43:00,
2013-02-04 00:58:00,44.0,27.0,29.79,WNW,302,0.0,8.0,52,0.00,,,0.00,weatherlink.com 1.10,2013-02-04 06:58:00,
2013-02-04 01:13:00,44.5,27.0,29.79,SE,135,0.0,9.0,51,0.00,,,0.00,weatherlink.com 1.10,2013-02-04 07:13:00,
2013-02-04 01:28:00,44.9,27.0,29.78,ESE,108,0.0,6.0,50,0.00,,,0.00,weatherlink.com 1.10,2013-02-04 07:28:00,
2013-02-04 01:43:00,45.4,28.0,29.77,ESE,108,1.0,5.0,50,0.00,,,0.00,weatherlink.com 1.10,2013-02-04 07:43:00,
2013-02-04 01:58:00,46.0,28.0,29.77,SSE,148,0.0,6.0,49,0.00,,,0.00,weatherlink.com 1.10,2013-02-04 07:58:00,
2013-02-04 02:13:00,46.4,28.0,29.76,SE,134,1.0,5.0,49,0.00,,,0.00,weatherlink.com 1.10,2013-02-04 08:13:00,
2013-02-04 02:28:00,46.6,28.0,29.76,East,86,2.0,7.0,49,0.00,,,0.00,weatherlink.com 1.10,2013-02-04 08:28:00,
2013-02-04 02:43:00,46.6,29.0,29.76,East,98,1.0,7.0,50,0.00,,,0.00,weatherlink.com 1.10,2013-02-04 08:43:00,
2013-02-04 02:58:00,46.7,29.0,29.75,ESE,123,0.0,3.0,50,0.00,,,0.00,weatherlink.com 1.10,2013-02-04 08:58:00,
2013-02-04 03:13:00,46.5,29.0,29.75,SE,128,1.0,2.0,51,0.00,,,0.00,weatherlink.com 1.10,2013-02-04 09:13:00,
2013-02-04 03:28:00,46.1,29.0,29.76,NW,315,1.0,1.0,52,0.00,,,0.00,weatherlink.com 1.10,2013-02-04 09:28:00,
2013-02-04 03:43:00,45.4,29.0,29.76,NW,314,0.0,0.0,53,0.00,,,0.00,weatherlink.com 1.10,2013-02-04 09:43:00,
2013-02-04 03:58:00,44.7,29.0,29.77,NNW,345,0.0,1.0,55,0.00,,,0.00,weatherlink.com 1.10,2013-02-04 09:58:00,
2013-02-04 04:14:00,45.1,30.0,29.77,NNW,338,0.0,7.0,55,0.00,,,0.00,weatherlink.com 1.10,2013-02-04 10:14:00,
2013-02-04 04:29:00,46.2,30.0,29.77,NE,51,0.0,8.0,53,0.00,,,0.00,weatherlink.com 1.10,2013-02-04 10:29:00,
2013-02-04 04:44:00,46.2,30.0,29.77,NW,326,0.0,2.0,53,0.00,,,0.00,weatherlink.com 1.10,2013-02-04 10:44:00,
2013-02-04 04:59:00,45.5,30.0,29.77,East,87,0.0,0.0,55,0.00,,,0.00,weatherlink.com 1.10,2013-02-04 10:59:00,
2013-02-04 05:14:00,44.5,29.0,29.77,SE,134,0.0,0.0,56,0.00,,,0.00,weatherlink.com 1.10,2013-02-04 11:14:00,
2013-02-04 05:29:00,43.3,29.0,29.77,SE,135,0.0,0.0,58,0.00,,,0.00,weatherlink.com 1.10,2013-02-04 11:29:00,
2013-02-04 05:44:00,42.3,29.0,29.78,SE,135,0.0,0.0,60,0.00,,,0.00,weatherlink.com 1.10,2013-02-04 11:44:00,
2013-02-04 05:59:00,41.9,30.0,29.77,SE,131,0.0,0.0,62,0.00,,,0.00,weatherlink.com 1.10,2013-02-04 11:59:00,
2013-02-04 06:14:00,41.4,30.0,29.77,SE,131,0.0,0.0,63,0.00,,,0.00,weatherlink.com 1.10,2013-02-04 12:14:00,
2013-02-04 06:29:00,40.3,29.0,29.77,SE,131,0.0,0.0,64,0.00,,,0.00,weatherlink.com 1.10,2013-02-04 12:29:00,
2013-02-04 06:44:00,39.7,29.0,29.77,SE,131,0.0,0.0,66,0.00,,,0.00,weatherlink.com 1.10,2013-02-04 12:44:00,
2013-02-04 06:59:00,39.5,29.0,29.78,SE,133,0.0,0.0,67,0.00,,,0.00,weatherlink.com 1.10,2013-02-04 12:59:00,
2013-02-04 07:14:00,38.7,29.0,29.79,SE,132,0.0,0.0,68,0.00,,,0.00,weatherlink.com 1.10,2013-02-04 13:14:00,
2013-02-04 07:29:00,37.8,29.0,29.79,SE,133,0.0,0.0,70,0.00,,,0.00,weatherlink.com 1.10,2013-02-04 13:29:00,
2013-02-04 07:44:00,38.5,29.0,29.80,NW,306,0.0,1.0,70,0.00,,,0.00,weatherlink.com 1.10,2013-02-04 13:44:00,
2013-02-04 07:59:00,40.3,30.0,29.80,NW,309,0.0,0.0,67,0.00,,,0.00,weatherlink.com 1.10,2013-02-04 13:59:00,
2013-02-04 08:14:00,42.0,30.0,29.81,WNW,295,3.0,7.0,62,0.00,,,0.00,weatherlink.com 1.10,2013-02-04 14:14:00,
2013-02-04 08:29:00,42.4,30.0,29.82,NW,304,6.0,8.0,61,0.00,,,0.00,weatherlink.com 1.10,2013-02-04 14:29:00,
2013-02-04 08:44:00,42.0,29.0,29.82,West,273,5.0,10.0,61,0.00,,,0.00,weatherlink.com 1.10,2013-02-04 14:44:00,
2013-02-04 08:59:00,41.7,29.0,29.83,NW,311,2.0,9.0,62,0.00,,,0.00,weatherlink.com 1.10,2013-02-04 14:59:00,
2013-02-04 09:14:00,41.9,30.0,29.84,NW,323,3.0,10.0,62,0.00,,,0.00,weatherlink.com 1.10,2013-02-04 15:14:00,
2013-02-04 09:29:00,42.8,30.0,29.84,North,354,2.0,8.0,61,0.00,,,0.00,weatherlink.com 1.10,2013-02-04 15:29:00,
2013-02-04 09:44:00,43.6,30.0,29.84,NE,34,0.0,7.0,60,0.00,,,0.00,weatherlink.com 1.10,2013-02-04 15:44:00,
2013-02-04 09:59:00,43.5,30.0,29.85,NW,319,5.0,10.0,60,0.00,,,0.00,weatherlink.com 1.10,2013-02-04 15:59:00,
2013-02-04 10:14:00,43.9,30.0,29.85,WNW,284,2.0,9.0,59,0.00,,,0.00,weatherlink.com 1.10,2013-02-04 16:14:00,
2013-02-04 10:29:00,44.4,31.0,29.86,NNE,32,0.0,6.0,59,0.00,,,0.00,weatherlink.com 1.10,2013-02-04 16:29:00,
2013-02-04 10:44:00,44.5,30.0,29.86,NW,306,6.0,10.0,58,0.00,,,0.00,weatherlink.com 1.10,2013-02-04 16:44:00,
2013-02-04 10:59:00,44.7,30.0,29.87,WNW,294,4.0,8.0,57,0.00,,,0.00,weatherlink.com 1.10,2013-02-04 16:59:00,
2013-02-04 11:14:00,45.0,30.0,29.88,WNW,290,2.0,8.0,57,0.00,,,0.00,weatherlink.com 1.10,2013-02-04 17:14:00,
2013-02-04 11:29:00,44.2,30.0,29.89,NNE,27,0.0,11.0,59,0.00,,,0.00,weatherlink.com 1.10,2013-02-04 17:29:00,
2013-02-04 11:44:00,44.8,30.0,29.89,ENE,77,3.0,8.0,57,0.00,,,0.00,weatherlink.com 1.10,2013-02-04 17:44:00,
2013-02-04 11:59:00,44.0,30.0,29.89,North,354,4.0,10.0,59,0.00,,,0.00,weatherlink.com 1.10,2013-02-04 17:59:00,
2013-02-04 12:14:00,44.6,30.0,29.89,WNW,300,4.0,9.0,58,0.00,,,0.00,weatherlink.com 1.10,2013-02-04 18:14:00,
2013-02-04 12:29:00,44.8,30.0,29.89,NW,314,3.0,9.0,57,0.00,,,0.00,weatherlink.com 1.10,2013-02-04 18:29:00,
2013-02-04 12:44:00,44.2,30.0,29.89,WNW,290,3.0,11.0,57,0.00,,,0.00,weatherlink.com 1.10,2013-02-04 18:44:00,
2013-02-04 12:59:00,44.5,30.0,29.89,ENE,61,0.0,9.0,58,0.00,,,0.00,weatherlink.com 1.10,2013-02-04 18:59:00,
2013-02-04 13:14:00,44.4,30.0,29.89,ENE,61,4.0,8.0,57,0.00,,,0.00,weatherlink.com 1.10,2013-02-04 19:14:00,
2013-02-04 13:29:00,43.7,29.0,29.89,NW,326,0.0,8.0,56,0.00,,,0.00,weatherlink.com 1.10,2013-02-04 19:29:00,
2013-02-04 13:45:00,43.1,29.0,29.89,WNW,294,6.0,10.0,57,0.00,,,0.00,weatherlink.com 1.10,2013-02-04 19:45:00,
2013-02-04 14:00:00,41.8,28.0,29.88,NNW,334,0.0,8.0,59,0.00,,,0.00,weatherlink.com 1.10,2013-02-04 20:00:00,
2013-02-04 14:15:00,41.5,28.0,29.88,NW,316,4.0,7.0,59,0.00,,,0.00,weatherlink.com 1.10,2013-02-04 20:15:00,
2013-02-04 14:30:00,40.2,28.0,29.89,NNW,335,0.0,8.0,61,0.00,,,0.00,weatherlink.com 1.10,2013-02-04 20:30:00,
2013-02-04 14:45:00,39.8,27.0,29.89,NE,34,2.0,7.0,61,0.00,,,0.00,weatherlink.com 1.10,2013-02-04 20:45:00,
2013-02-04 15:00:00,38.7,27.0,29.89,NNE,22,0.0,8.0,62,0.00,,,0.00,weatherlink.com 1.10,2013-02-04 21:00:00,
2013-02-04 15:15:00,38.0,27.0,29.89,ENE,65,2.0,7.0,64,0.00,,,0.00,weatherlink.com 1.10,2013-02-04 21:15:00,
2013-02-04 15:30:00,37.3,26.0,29.90,NE,44,0.0,6.0,65,0.00,,,0.00,weatherlink.com 1.10,2013-02-04 21:30:00,
2013-02-04 15:45:00,36.7,26.0,29.91,NE,44,2.0,6.0,66,0.00,,,0.00,weatherlink.com 1.10,2013-02-04 21:45:00,
2013-02-04 16:00:00,35.9,26.0,29.92,NNE,22,2.0,8.0,67,0.00,,,0.00,weatherlink.com 1.10,2013-02-04 22:00:00,
2013-02-04 16:15:00,35.2,26.0,29.92,WNW,302,1.0,5.0,68,0.00,,,0.00,weatherlink.com 1.10,2013-02-04 22:15:00,
2013-02-04 16:35:00,34.4,26.0,29.92,West,280,1.0,6.0,70,0.00,,,0.00,weatherlink.com 1.10,2013-02-04 22:35:00,
2013-02-04 17:00:00,33.6,25.0,29.92,NW,306,1.0,7.0,71,0.00,,,0.00,weatherlink.com 1.10,2013-02-04 23:00:00,
2013-02-04 17:15:00,33.0,25.0,29.92,WNW,298,1.0,5.0,72,0.00,,,0.00,weatherlink.com 1.10,2013-02-04 23:15:00,
2013-02-04 17:30:00,32.1,25.0,29.92,NW,308,0.0,4.0,74,0.00,,,0.00,weatherlink.com 1.10,2013-02-04 23:30:00,
2013-02-04 17:45:00,31.9,25.0,29.92,NNW,346,0.0,3.0,74,0.00,,,0.00,weatherlink.com 1.10,2013-02-04 23:45:00,
2013-02-04 18:00:00,31.2,24.0,29.92,ENE,68,0.0,2.0,76,0.00,,,0.00,weatherlink.com 1.10,2013-02-05 00:00:00,
2013-02-04 18:15:00,30.4,24.0,29.92,NE,44,0.0,1.0,77,0.00,,,0.00,weatherlink.com 1.10,2013-02-05 00:15:00,
2013-02-04 18:30:00,29.6,24.0,29.92,NE,40,0.0,1.0,78,0.00,,,0.00,weatherlink.com 1.10,2013-02-05 00:30:00,
2013-02-04 18:45:00,29.2,23.0,29.93,NNE,32,2.0,2.0,79,0.00,,,0.00,weatherlink.com 1.10,2013-02-05 00:45:00,
2013-02-04 19:00:00,28.9,23.0,29.93,NNW,329,0.0,1.0,80,0.00,,,0.00,weatherlink.com 1.10,2013-02-05 01:00:00,
2013-02-04 19:15:00,28.6,24.0,29.94,ENE,77,0.0,3.0,81,0.00,,,0.00,weatherlink.com 1.10,2013-02-05 01:15:00,
2013-02-04 19:30:00,28.3,23.0,29.93,ENE,58,0.0,1.0,81,0.00,,,0.00,weatherlink.com 1.10,2013-02-05 01:30:00,
2013-02-04 19:45:00,28.2,23.0,29.94,NNE,18,0.0,1.0,81,0.00,,,0.00,weatherlink.com 1.10,2013-02-05 01:45:00,
2013-02-04 20:00:00,28.0,23.0,29.94,NE,43,0.0,1.0,82,0.00,,,0.00,weatherlink.com 1.10,2013-02-05 02:00:00,
2013-02-04 20:15:00,27.5,23.0,29.95,NE,43,0.0,0.0,82,0.00,,,0.00,weatherlink.com 1.10,2013-02-05 02:15:00,
2013-02-04 20:31:00,27.0,23.0,29.95,NE,42,0.0,0.0,83,0.00,,,0.00,weatherlink.com 1.10,2013-02-05 02:31:00,
2013-02-04 20:46:00,26.6,22.0,29.95,NE,42,0.0,0.0,84,0.00,,,0.00,weatherlink.com 1.10,2013-02-05 02:46:00,
2013-02-04 21:01:00,26.4,23.0,29.95,NE,43,0.0,0.0,85,0.00,,,0.00,weatherlink.com 1.10,2013-02-05 03:01:00,
2013-02-04 21:16:00,26.0,22.0,29.96,NE,42,0.0,0.0,85,0.00,,,0.00,weatherlink.com 1.10,2013-02-05 03:16:00,
2013-02-04 21:31:00,25.6,22.0,29.96,NE,43,0.0,0.0,86,0.00,,,0.00,weatherlink.com 1.10,2013-02-05 03:31:00,
2013-02-04 21:46:00,25.5,22.0,29.96,NE,43,0.0,0.0,87,0.00,,,0.00,weatherlink.com 1.10,2013-02-05 03:46:00,
2013-02-04 22:01:00,25.5,22.0,29.95,NE,42,0.0,0.0,87,0.00,,,0.00,weatherlink.com 1.10,2013-02-05 04:01:00,
2013-02-04 22:16:00,25.4,22.0,29.95,NE,42,0.0,0.0,87,0.00,,,0.00,weatherlink.com 1.10,2013-02-05 04:16:00,
2013-02-04 22:31:00,25.3,22.0,29.95,NE,42,0.0,0.0,87,0.00,,,0.00,weatherlink.com 1.10,2013-02-05 04:31:00,
2013-02-04 22:46:00,25.0,22.0,29.95,NE,42,0.0,0.0,87,0.00,,,0.00,weatherlink.com 1.10,2013-02-05 04:46:00,
2013-02-04 23:01:00,24.7,22.0,29.95,NE,42,0.0,0.0,88,0.00,,,0.00,weatherlink.com 1.10,2013-02-05 05:01:00,
2013-02-04 23:16:00,24.5,22.0,29.95,NE,42,0.0,0.0,89,0.00,,,0.00,weatherlink.com 1.10,2013-02-05 05:16:00,
2013-02-04 23:31:00,24.7,22.0,29.93,NE,42,0.0,0.0,89,0.00,,,0.00,weatherlink.com 1.10,2013-02-05 05:31:00,
2013-02-04 23:46:00,24.6,22.0,29.93,ENE,63,0.0,0.0,89,0.00,,,0.00,weatherlink.com 1.10,2013-02-05 05:46:00,